Time;durP1;ratioP1;P1;durP2;ratioP2;P2;SDS_P1;SDS_P2;PMS_P1;PMS_P2;Temp;Humidity;BMP_temperature;BMP_pressure;BME280_temperature;BME280_humidity;BME280_pressure;Samples;Min_cycle;Max_cycle;Signal;HPM_P1;HPM_P2
2021/08/14 00:00:33;;;;;;;;;;;;;;;21.22;67.54;98607.36;1758834;81;24390;-84
2021/08/14 00:03:01;;;;;;;;;;;;;;;21.24;67.59;98609.33;1727539;82;20356;-84
2021/08/14 00:05:27;;;;;;;;;;;;;;;21.26;67.62;98606.84;1736958;81;26017;-84
2021/08/14 00:07:53;;;;;;;;;;;;;;;21.27;67.64;98598.36;1734543;81;20293;-83
2021/08/14 00:10:19;;;;;;;;;;;;;;;21.28;67.68;98608.81;1734067;81;25961;-83
2021/08/14 00:12:47;;;;;;;;;;;;;;;21.26;67.72;98598.86;1725955;81;24537;-84
2021/08/14 00:15:14;;;;;;;;;;;;;;;21.27;67.76;98600.50;1723200;82;20212;-84
2021/08/14 00:17:40;;;;;;;;;;;;;;;21.26;67.77;98596.20;1725602;83;25053;-83
2021/08/14 00:20:06;;;;;;;;;;;;;;;21.29;67.81;98602.99;1725362;83;21914;-84
2021/08/14 00:22:32;;;;;;;;;;;;;;;21.29;67.82;98601.17;1726033;82;26024;-84
2021/08/14 00:25:01;;;;;;;;;;;;;;;21.30;67.86;98602.00;1724034;83;24602;-84
2021/08/14 00:27:33;;;;;;;;;;;;;;;21.27;67.89;98593.04;1723859;83;21240;-84
2021/08/14 00:29:59;;;;;;;;;;;;;;;21.28;67.90;98601.33;1759459;81;24985;-84
2021/08/14 00:32:26;;;;;;;;;;;;;;;21.28;67.93;98596.84;1757725;81;22006;-83
2021/08/14 00:34:55;;;;;;;;;;;;;;;21.27;67.96;98601.83;1729154;81;26009;-84
2021/08/14 00:37:21;;;;;;;;;;;;;;;21.27;67.97;98596.50;1731499;81;24672;-84
2021/08/14 00:39:47;;;;;;;;;;;;;;;21.26;67.98;98602.85;1763302;81;20523;-84
2021/08/14 00:42:23;;;;;;;;;;;;;;;21.25;68.00;98598.52;1760835;81;25016;-84
2021/08/14 00:44:50;;;;;;;;;;;;;;;21.26;68.00;98598.03;1740936;82;22228;-84
2021/08/14 00:47:20;;;;;;;;;;;;;;;21.27;67.99;98597.83;1739741;82;26064;-84
2021/08/14 00:49:46;;;;;;;;;;;;;;;21.28;67.98;98591.52;1736108;82;24544;-87
2021/08/14 00:52:12;;;;;;;;;;;;;;;21.31;67.96;98592.19;1735437;82;20264;-87
2021/08/14 00:54:38;;;;;;;;;;;;;;;21.31;67.97;98600.17;1740249;82;24957;-86
2021/08/14 00:57:05;;;;;;;;;;;;;;;21.31;67.98;98596.17;1738632;82;21816;-86
2021/08/14 00:59:31;;;;;;;;;;;;;;;21.31;67.95;98588.19;1733189;82;25982;-87
2021/08/14 01:01:58;;;;;;;;;;;;;;;21.32;67.94;98589.86;1737364;82;24271;-86
2021/08/14 01:04:24;;;;;;;;;;;;;;;21.33;67.95;98588.86;1737339;82;20190;-86
2021/08/14 01:06:50;;;;;;;;;;;;;;;21.33;67.96;98587.00;1738890;82;25031;-83
2021/08/14 01:09:17;;;;;;;;;;;;;;;21.34;67.97;98587.84;1735892;82;22052;-84
2021/08/14 01:11:43;;;;;;;;;;;;;;;21.35;67.97;98593.50;1735115;82;26031;-83
2021/08/14 01:14:11;;;;;;;;;;;;;;;21.35;68.00;98593.00;1736822;82;24528;-83
2021/08/14 01:16:37;;;;;;;;;;;;;;;21.34;68.01;98586.00;1736480;81;20354;-83
2021/08/14 01:19:04;;;;;;;;;;;;;;;21.33;68.03;98582.20;1735275;82;20840;-83
2021/08/14 01:21:30;;;;;;;;;;;;;;;21.32;68.02;98581.88;1732451;82;21985;-83
2021/08/14 01:23:57;;;;;;;;;;;;;;;21.30;68.06;98578.04;1735687;81;25994;-83
2021/08/14 01:26:23;;;;;;;;;;;;;;;21.29;68.06;98581.70;1741790;81;24521;-84
2021/08/14 01:28:50;;;;;;;;;;;;;;;21.31;68.04;98576.21;1738539;81;21140;-85
2021/08/14 01:31:18;;;;;;;;;;;;;;;21.32;68.07;98583.20;1737510;81;24957;-87
2021/08/14 01:33:45;;;;;;;;;;;;;;;21.33;68.09;98576.88;1739402;81;22048;-88
2021/08/14 01:36:17;;;;;;;;;;;;;;;21.34;68.10;98586.50;1740444;82;26621;-87
2021/08/14 01:38:44;;;;;;;;;;;;;;;21.33;68.14;98583.01;1739185;81;24510;-87
2021/08/14 01:41:16;;;;;;;;;;;;;;;21.35;68.16;98583.68;1737695;81;20271;-87
2021/08/14 01:43:53;;;;;;;;;;;;;;;21.37;68.19;98576.36;1736720;81;25042;-87
2021/08/14 01:46:19;;;;;;;;;;;;;;;21.38;68.20;98578.03;1712532;81;22179;-87
2021/08/14 01:48:52;;;;;;;;;;;;;;;21.38;68.17;98582.02;1738353;82;26726;-87
2021/08/14 01:51:19;;;;;;;;;;;;;;;21.39;68.19;98573.50;1738540;81;24497;-87
2021/08/14 01:53:47;;;;;;;;;;;;;;;21.40;68.20;98580.50;1738179;82;20220;-87
2021/08/14 01:56:13;;;;;;;;;;;;;;;21.40;68.19;98576.00;1739377;81;24985;-87
2021/08/14 01:58:39;;;;;;;;;;;;;;;21.39;68.22;98583.66;1740026;81;22116;-87
2021/08/14 02:01:06;;;;;;;;;;;;;;;21.41;68.20;98583.49;1739901;81;20937;-87
2021/08/14 02:03:32;;;;;;;;;;;;;;;21.45;68.24;98578.98;1737169;82;24480;-87
2021/08/14 02:05:59;;;;;;;;;;;;;;;21.46;68.23;98577.15;1740840;82;20238;-87
2021/08/14 02:08:25;;;;;;;;;;;;;;;21.46;68.22;98575.31;1740555;82;25142;-87
2021/08/14 02:10:51;;;;;;;;;;;;;;;21.51;68.24;98576.96;1739363;81;20318;-87
2021/08/14 02:13:17;;;;;;;;;;;;;;;21.53;68.22;98564.81;1741461;81;25967;-87
2021/08/14 02:15:43;;;;;;;;;;;;;;;21.54;68.21;98565.98;1737233;81;24433;-88
2021/08/14 02:18:09;;;;;;;;;;;;;;;21.56;68.22;98561.78;1736261;81;20298;-88
2021/08/14 02:20:35;;;;;;;;;;;;;;;21.59;68.19;98562.79;1742079;82;24970;-87
2021/08/14 02:23:01;;;;;;;;;;;;;;;21.61;68.20;98558.10;1738646;81;22027;-87
2021/08/14 02:25:27;;;;;;;;;;;;;;;21.62;68.20;98552.61;1740789;81;26193;-87
2021/08/14 02:27:53;;;;;;;;;;;;;;;21.63;68.19;98552.11;1735631;81;20726;-87
2021/08/14 02:30:19;;;;;;;;;;;;;;;21.64;68.19;98546.62;1739300;81;20638;-87
2021/08/14 02:32:47;;;;;;;;;;;;;;;21.65;68.17;98550.11;1740534;82;20449;-87
2021/08/14 02:35:13;;;;;;;;;;;;;;;21.63;68.15;98547.62;1740567;81;21421;-87
2021/08/14 02:37:39;;;;;;;;;;;;;;;21.64;68.11;98540.45;1742421;82;25941;-88
2021/08/14 02:40:06;;;;;;;;;;;;;;;21.65;68.13;98545.63;1741698;82;25535;-88
2021/08/14 02:42:32;;;;;;;;;;;;;;;21.66;68.13;98546.42;1738156;81;20345;-87
2021/08/14 02:44:58;;;;;;;;;;;;;;;21.64;68.12;98547.95;1740196;82;20830;-87
2021/08/14 02:47:24;;;;;;;;;;;;;;;21.64;68.10;98548.45;1742487;81;20245;-88
2021/08/14 02:49:55;;;;;;;;;;;;;;;21.63;68.12;98541.45;1746842;81;21864;-87
2021/08/14 02:52:23;;;;;;;;;;;;;;;21.59;68.13;98542.31;1717540;82;25260;-87
2021/08/14 02:54:57;;;;;;;;;;;;;;;21.59;68.14;98548.14;1743255;82;20407;-87
2021/08/14 02:57:23;;;;;;;;;;;;;;;21.61;68.16;98544.78;1743313;80;25108;-87
2021/08/14 02:59:49;;;;;;;;;;;;;;;21.63;68.18;98546.28;1740640;82;20244;-87
2021/08/14 03:02:21;;;;;;;;;;;;;;;21.62;68.19;98542.45;1743108;81;21118;-88
2021/08/14 03:04:48;;;;;;;;;;;;;;;21.63;68.20;98542.28;1741505;82;24387;-87
2021/08/14 03:07:14;;;;;;;;;;;;;;;21.64;68.24;98540.45;1744053;81;20631;-88
2021/08/14 03:09:40;;;;;;;;;;;;;;;21.67;68.24;98544.92;1738190;82;25728;-87
2021/08/14 03:12:06;;;;;;;;;;;;;;;21.63;68.23;98540.13;1742600;82;20328;-87
2021/08/14 03:14:38;;;;;;;;;;;;;;;21.61;68.25;98536.79;1741250;82;26772;-87
2021/08/14 03:17:04;;;;;;;;;;;;;;;21.59;68.25;98545.48;1742013;82;26163;-86
2021/08/14 03:19:32;;;;;;;;;;;;;;;21.57;68.27;98546.14;1743486;82;20291;-86
2021/08/14 03:21:58;;;;;;;;;;;;;;;21.56;68.29;98547.97;1743909;82;25052;-86
2021/08/14 03:24:24;;;;;;;;;;;;;;;21.55;68.28;98553.47;1743194;81;22036;-86
2021/08/14 03:26:50;;;;;;;;;;;;;;;21.55;68.28;98550.80;1742356;81;20976;-86
2021/08/14 03:29:17;;;;;;;;;;;;;;;21.52;68.28;98551.16;1744165;82;24653;-85
2021/08/14 03:31:43;;;;;;;;;;;;;;;21.52;68.31;98551.16;1743291;81;20270;-85
2021/08/14 03:34:09;;;;;;;;;;;;;;;21.49;68.29;98558.98;1743007;82;20246;-85
2021/08/14 03:36:35;;;;;;;;;;;;;;;21.52;68.28;98557.82;1743975;81;22032;-85
2021/08/14 03:39:01;;;;;;;;;;;;;;;21.47;68.29;98561.01;1740403;81;21147;-84
2021/08/14 03:41:27;;;;;;;;;;;;;;;21.45;68.31;98551.02;1744211;82;20545;-85
2021/08/14 03:43:53;;;;;;;;;;;;;;;21.44;68.31;98560.53;1743821;80;20226;-84
2021/08/14 03:46:20;;;;;;;;;;;;;;;21.46;68.32;98555.84;1743933;81;24974;-84
2021/08/14 03:48:48;;;;;;;;;;;;;;;21.43;68.34;98559.70;1742361;81;22021;-84
2021/08/14 03:51:16;;;;;;;;;;;;;;;21.39;68.37;98562.36;1741904;82;26552;-85
2021/08/14 03:53:44;;;;;;;;;;;;;;;21.36;68.41;98564.05;1738629;81;24459;-84
2021/08/14 03:56:11;;;;;;;;;;;;;;;21.31;68.42;98564.23;1741168;82;20340;-84
2021/08/14 03:58:39;;;;;;;;;;;;;;;21.29;68.44;98559.90;1741350;81;25676;-84
2021/08/14 04:01:05;;;;;;;;;;;;;;;21.23;68.45;98565.08;1741165;82;22129;-84
2021/08/14 04:03:31;;;;;;;;;;;;;;;21.21;68.51;98559.95;1744405;81;26190;-84
2021/08/14 04:05:57;;;;;;;;;;;;;;;21.17;68.57;98562.59;1742952;82;24431;-86
2021/08/14 04:08:23;;;;;;;;;;;;;;;21.13;68.62;98551.94;1741669;80;20294;-86
2021/08/14 04:10:49;;;;;;;;;;;;;;;21.08;68.65;98565.42;1743782;80;25000;-85
2021/08/14 04:13:15;;;;;;;;;;;;;;;21.05;68.72;98560.45;1743307;81;21988;-85
2021/08/14 04:15:43;;;;;;;;;;;;;;;21.02;68.82;98562.94;1741270;81;26934;-85
2021/08/14 04:18:09;;;;;;;;;;;;;;;21.02;68.86;98560.78;1739938;81;24582;-85
2021/08/14 04:20:35;;;;;;;;;;;;;;;21.03;68.93;98565.94;1742066;82;20246;-85
2021/08/14 04:23:01;;;;;;;;;;;;;;;21.05;68.99;98561.78;1743403;82;24981;-85
2021/08/14 04:25:29;;;;;;;;;;;;;;;21.08;69.02;98566.75;1783383;79;36063;-86
2021/08/14 04:28:01;;;;;;;;;;;;;;;21.09;69.08;98567.92;1800909;78;26018;-86
2021/08/14 04:30:30;;;;;;;;;;;;;;;21.15;69.14;98572.61;1800671;78;25286;-86
2021/08/14 04:32:57;;;;;;;;;;;;;;;21.22;69.18;98580.21;1802835;78;20285;-86
2021/08/14 04:35:22;;;;;;;;;;;;;;;21.25;69.19;98571.91;1802662;78;25551;-86
2021/08/14 04:37:49;;;;;;;;;;;;;;;21.29;69.23;98584.36;1763945;80;20236;-86
2021/08/14 04:40:21;;;;;;;;;;;;;;;21.29;69.26;98585.20;1768802;80;26319;-85
2021/08/14 04:42:51;;;;;;;;;;;;;;;21.30;69.29;98591.35;1764674;80;24449;-86
2021/08/14 04:45:17;;;;;;;;;;;;;;;21.33;69.29;98590.20;1760633;80;20233;-86
2021/08/14 04:47:43;;;;;;;;;;;;;;;21.32;69.30;98597.34;1727831;81;20790;-85
2021/08/14 04:50:10;;;;;;;;;;;;;;;21.33;69.32;98592.33;1712383;82;20270;-86
2021/08/14 04:52:38;;;;;;;;;;;;;;;21.42;69.35;98599.80;1757354;80;27392;-85
2021/08/14 04:55:05;;;;;;;;;;;;;;;21.54;69.45;98599.27;1759064;80;24404;-85
2021/08/14 04:57:38;;;;;;;;;;;;;;;21.65;69.54;98602.89;1729086;81;20620;-85
2021/08/14 05:00:05;;;;;;;;;;;;;;;21.72;69.56;98591.02;1717800;81;25896;-86
2021/08/14 05:02:31;;;;;;;;;;;;;;;21.74;69.61;98588.19;1759563;80;22176;-85
2021/08/14 05:04:57;;;;;;;;;;;;;;;21.74;69.66;98591.68;1729047;81;21127;-85
2021/08/14 05:07:23;;;;;;;;;;;;;;;21.70;69.68;98591.21;1729219;82;24507;-85
2021/08/14 05:09:52;;;;;;;;;;;;;;;21.67;69.65;98588.04;1730792;82;20322;-85
2021/08/14 05:12:18;;;;;;;;;;;;;;;21.62;69.63;98599.22;1729610;82;25662;-85
2021/08/14 05:14:47;;;;;;;;;;;;;;;21.61;69.56;98600.22;1728989;81;21872;-85
2021/08/14 05:17:12;;;;;;;;;;;;;;;21.57;69.53;98600.74;1759693;80;27022;-87
2021/08/14 05:19:42;;;;;;;;;;;;;;;21.54;69.51;98607.26;1758165;80;24545;-87
2021/08/14 05:22:21;;;;;;;;;;;;;;;21.53;69.53;98611.42;1756452;80;20234;-87
2021/08/14 05:24:48;;;;;;;;;;;;;;;21.54;69.62;98612.59;1728328;81;25448;-88
2021/08/14 05:27:17;;;;;;;;;;;;;;;21.57;69.66;98616.72;1728100;81;22064;-88
2021/08/14 05:29:44;;;;;;;;;;;;;;;21.62;69.68;98620.53;1756628;80;27024;-87
2021/08/14 05:32:10;;;;;;;;;;;;;;;21.70;69.74;98619.18;1724511;82;24700;-87
2021/08/14 05:34:36;;;;;;;;;;;;;;;21.77;69.77;98614.47;1728502;81;20768;-87
2021/08/14 05:37:03;;;;;;;;;;;;;;;21.82;69.81;98608.95;1713000;82;20308;-87
2021/08/14 05:39:31;;;;;;;;;;;;;;;21.90;69.87;98609.42;1757887;80;20250;-88
2021/08/14 05:41:57;;;;;;;;;;;;;;;21.94;69.93;98605.39;1759295;80;21174;-88
2021/08/14 05:44:25;;;;;;;;;;;;;;;21.97;69.95;98616.59;1758453;80;24512;-87
2021/08/14 05:46:51;;;;;;;;;;;;;;;21.98;69.99;98609.42;1760633;80;20314;-84
2021/08/14 05:49:17;;;;;;;;;;;;;;;22.02;70.05;98608.89;1742735;81;20379;-84
2021/08/14 05:51:43;;;;;;;;;;;;;;;22.07;70.11;98603.86;1740200;82;20250;-84
2021/08/14 05:54:09;;;;;;;;;;;;;;;22.16;70.18;98603.80;1732193;81;26122;-84
2021/08/14 05:56:35;;;;;;;;;;;;;;;22.21;70.23;98608.09;1736958;81;24364;-84
2021/08/14 05:59:03;;;;;;;;;;;;;;;22.27;70.30;98606.06;1738319;82;20841;-84
2021/08/14 06:01:29;;;;;;;;;;;;;;;22.30;70.32;98601.72;1736307;82;25052;-85
2021/08/14 06:03:55;;;;;;;;;;;;;;;22.35;70.37;98600.19;1736435;80;20274;-84
2021/08/14 06:06:21;;;;;;;;;;;;;;;22.41;70.37;98605.31;1740380;80;25939;-84
2021/08/14 06:08:47;;;;;;;;;;;;;;;22.50;70.34;98605.57;1733716;80;20333;-84
2021/08/14 06:11:13;;;;;;;;;;;;;;;22.60;70.36;98618.16;1733037;80;20242;-84
2021/08/14 06:13:39;;;;;;;;;;;;;;;22.66;70.35;98606.77;1737898;82;20261;-84
2021/08/14 06:16:08;;;;;;;;;;;;;;;22.74;70.34;98611.26;1740486;82;20801;-85
2021/08/14 06:18:33;;;;;;;;;;;;;;;22.78;70.26;98620.05;1735434;81;26045;-85
2021/08/14 06:20:59;;;;;;;;;;;;;;;22.88;70.23;98626.47;1736954;82;24407;-84
2021/08/14 06:23:25;;;;;;;;;;;;;;;22.94;70.19;98627.91;1733693;82;20160;-84
2021/08/14 06:25:51;;;;;;;;;;;;;;;23.03;70.17;98629.16;1713852;82;20357;-85
2021/08/14 06:28:17;;;;;;;;;;;;;;;23.09;70.12;98626.59;1738469;82;20809;-85
2021/08/14 06:30:44;;;;;;;;;;;;;;;23.17;70.10;98628.37;1735975;82;21166;-85
2021/08/14 06:33:10;;;;;;;;;;;;;;;23.22;70.03;98627.31;1714534;82;24296;-85
2021/08/14 06:35:37;;;;;;;;;;;;;;;23.30;69.99;98629.38;1737566;81;20331;-85
2021/08/14 06:38:03;;;;;;;;;;;;;;;23.36;70.01;98626.48;1737074;82;25021;-86
2021/08/14 06:40:29;;;;;;;;;;;;;;;23.41;69.93;98624.09;1741051;81;21962;-88
2021/08/14 06:42:55;;;;;;;;;;;;;;;23.48;69.87;98632.23;1738014;81;26129;-88
2021/08/14 06:45:21;;;;;;;;;;;;;;;23.54;69.82;98625.66;1740118;81;24688;-88
2021/08/14 06:47:47;;;;;;;;;;;;;;;23.59;69.74;98627.27;1742586;81;20656;-86
2021/08/14 06:50:13;;;;;;;;;;;;;;;23.60;69.63;98630.27;1743647;80;24977;-86
2021/08/14 06:52:40;;;;;;;;;;;;;;;23.61;69.53;98625.76;1743214;82;20848;-85
2021/08/14 06:55:07;;;;;;;;;;;;;;;23.67;69.48;98635.70;1744845;81;26205;-86
2021/08/14 06:57:33;;;;;;;;;;;;;;;23.70;69.36;98629.98;1742958;80;24474;-86
2021/08/14 06:59:59;;;;;;;;;;;;;;;23.76;69.31;98630.58;1746288;82;20310;-86
2021/08/14 07:02:31;;;;;;;;;;;;;;;23.84;69.26;98627.78;1746640;80;24971;-85
2021/08/14 07:04:57;;;;;;;;;;;;;;;23.89;69.19;98632.59;1746381;82;21971;-86
2021/08/14 07:07:26;;;;;;;;;;;;;;;23.94;69.16;98636.37;1745985;80;26196;-86
2021/08/14 07:09:52;;;;;;;;;;;;;;;24.01;69.14;98629.73;1744938;82;24509;-86
2021/08/14 07:12:19;;;;;;;;;;;;;;;24.06;69.11;98628.16;1746642;80;20300;-86
2021/08/14 07:14:46;;;;;;;;;;;;;;;24.10;68.99;98628.63;1744298;80;25619;-86
2021/08/14 07:17:12;;;;;;;;;;;;;;;24.13;68.92;98626.91;1744881;80;21998;-86
2021/08/14 07:19:38;;;;;;;;;;;;;;;24.13;68.86;98625.57;1740907;80;20898;-86
2021/08/14 07:22:05;;;;;;;;;;;;;;;24.24;68.85;98633.64;1742991;80;20313;-86
2021/08/14 07:24:33;;;;;;;;;;;;;;;24.29;68.82;98633.90;1748857;80;20276;-86
2021/08/14 07:26:59;;;;;;;;;;;;;;;24.34;68.75;98638.17;1754948;80;25219;-86
2021/08/14 07:29:25;;;;;;;;;;;;;;;24.39;68.63;98641.11;1738750;81;21969;-86
2021/08/14 07:31:52;;;;;;;;;;;;;;;24.45;68.53;98634.49;1728121;82;26006;-86
2021/08/14 07:34:18;;;;;;;;;;;;;;;24.53;68.45;98634.89;1728103;81;25156;-86
2021/08/14 07:36:44;;;;;;;;;;;;;;;24.58;68.43;98637.82;1754844;80;20354;-86
2021/08/14 07:39:10;;;;;;;;;;;;;;;24.63;68.33;98635.91;1737127;81;25150;-86
2021/08/14 07:41:36;;;;;;;;;;;;;;;24.68;68.29;98640.17;1728464;81;20244;-88
2021/08/14 07:44:02;;;;;;;;;;;;;;;24.76;68.30;98640.05;1728190;81;20850;-89
2021/08/14 07:46:33;;;;;;;;;;;;;;;24.81;68.23;98642.47;1724612;81;20366;-88
2021/08/14 07:48:59;;;;;;;;;;;;;;;24.90;68.21;98646.69;1757182;80;20914;-88
2021/08/14 07:51:26;;;;;;;;;;;;;;;24.97;68.14;98650.27;1759150;80;25123;-89
2021/08/14 07:53:52;;;;;;;;;;;;;;;25.03;68.00;98647.33;1726043;82;22052;-89
2021/08/14 07:56:18;;;;;;;;;;;;;;;25.12;67.85;98653.35;1728434;82;25970;-89
2021/08/14 07:58:45;;;;;;;;;;;;;;;25.21;67.80;98650.33;1722395;82;21020;-89
2021/08/14 08:01:11;;;;;;;;;;;;;;;25.32;67.82;98655.16;1725473;81;20232;-89
2021/08/14 08:03:37;;;;;;;;;;;;;;;25.41;67.76;98649.98;1757728;81;25003;-88
2021/08/14 08:06:03;;;;;;;;;;;;;;;25.47;67.62;98648.37;1735721;81;21962;-88
2021/08/14 08:08:29;;;;;;;;;;;;;;;25.54;67.47;98649.72;1729509;81;25973;-88
2021/08/14 08:10:55;;;;;;;;;;;;;;;25.59;67.31;98647.31;1751966;81;20275;-88
2021/08/14 08:13:25;;;;;;;;;;;;;;;25.65;67.17;98649.20;1733988;82;20316;-88
2021/08/14 08:15:49;;;;;;;;;;;;;;;25.71;67.09;98644.39;1753946;81;25746;-88
2021/08/14 08:18:15;;;;;;;;;;;;;;;25.81;67.00;98641.66;1729014;81;20534;-87
2021/08/14 08:20:40;;;;;;;;;;;;;;;25.91;66.93;98644.51;1769834;80;20712;-85
2021/08/14 08:23:07;;;;;;;;;;;;;;;26.01;66.92;98639.09;1761760;80;24374;-85
2021/08/14 08:25:33;;;;;;;;;;;;;;;26.07;66.87;98631.58;1758288;81;20218;-86
2021/08/14 08:28:02;;;;;;;;;;;;;;;26.13;66.75;98626.72;1731998;81;20286;-86
2021/08/14 08:30:27;;;;;;;;;;;;;;;26.18;66.60;98632.31;1726173;81;22126;-86
2021/08/14 08:32:53;;;;;;;;;;;;;;;26.24;66.52;98628.86;1726129;81;26054;-85
2021/08/14 08:35:22;;;;;;;;;;;;;;;26.31;66.43;98626.20;1732785;81;24531;-85
2021/08/14 08:37:48;;;;;;;;;;;;;;;26.36;66.32;98627.75;1740412;80;20226;-85
2021/08/14 08:40:15;;;;;;;;;;;;;;;26.40;66.12;98630.37;1756213;81;24967;-86
2021/08/14 08:42:41;;;;;;;;;;;;;;;26.45;66.00;98627.07;1753583;80;21966;-86
2021/08/14 08:45:08;;;;;;;;;;;;;;;26.49;65.92;98625.62;1756003;81;26035;-85
2021/08/14 08:47:36;;;;;;;;;;;;;;;26.55;65.79;98624.81;1729086;81;24406;-85
2021/08/14 08:50:03;;;;;;;;;;;;;;;26.58;65.70;98622.53;1729367;81;20298;-85
2021/08/14 08:52:29;;;;;;;;;;;;;;;26.66;65.59;98624.20;1732725;81;24878;-85
2021/08/14 08:54:55;;;;;;;;;;;;;;;26.74;65.51;98623.16;1762257;80;22046;-86
2021/08/14 08:57:21;;;;;;;;;;;;;;;26.80;65.39;98625.86;1733576;81;20922;-88
2021/08/14 08:59:48;;;;;;;;;;;;;;;26.84;65.29;98622.27;1737009;82;24391;-88
2021/08/14 09:02:21;;;;;;;;;;;;;;;26.88;65.18;98621.67;1732931;81;20249;-88
2021/08/14 09:04:47;;;;;;;;;;;;;;;26.93;65.15;98620.53;1763061;79;24634;-88
2021/08/14 09:07:15;;;;;;;;;;;;;;;26.97;65.02;98615.56;1762939;79;22062;-89
2021/08/14 09:09:41;;;;;;;;;;;;;;;27.01;64.91;98616.28;1745878;80;25954;-85
2021/08/14 09:12:08;;;;;;;;;;;;;;;27.10;64.81;98616.09;1765124;79;20827;-85
2021/08/14 09:14:48;;;;;;;;;;;;;;;27.16;64.67;98612.57;1739719;81;20227;-85
2021/08/14 09:17:14;;;;;;;;;;;;;;;27.20;64.54;98612.45;1764424;79;25693;-85
2021/08/14 09:19:41;;;;;;;;;;;;;;;27.26;64.34;98607.08;1728763;81;22886;-85
2021/08/14 09:22:15;;;;;;;;;;;;;;;27.30;64.22;98604.78;1758647;79;26021;-84
2021/08/14 09:24:42;;;;;;;;;;;;;;;27.37;64.11;98601.06;1762188;79;24476;-84
2021/08/14 09:27:15;;;;;;;;;;;;;;;27.45;64.02;98598.13;1761116;80;20320;-88
2021/08/14 09:29:37;;;;;;;;;;;;;;;27.51;63.95;98601.87;1758037;79;24957;-85
2021/08/14 09:32:05;;;;;;;;;;;;;;;27.54;63.78;98596.09;1729840;81;22624;-86
2021/08/14 09:34:37;;;;;;;;;;;;;;;27.61;63.76;98596.88;1732330;82;26283;-86
2021/08/14 09:37:05;;;;;;;;;;;;;;;27.66;63.61;98599.75;1737353;81;25142;-85
2021/08/14 09:39:32;;;;;;;;;;;;;;;27.70;63.40;98598.83;1763214;80;20338;-85
2021/08/14 09:42:05;;;;;;;;;;;;;;;27.70;63.18;98595.62;1730963;81;25032;-85
2021/08/14 09:44:32;;;;;;;;;;;;;;;27.75;63.00;98598.50;1735778;81;22865;-84
2021/08/14 09:46:58;;;;;;;;;;;;;;;27.78;62.89;98592.67;1736844;81;26029;-84
2021/08/14 09:49:24;;;;;;;;;;;;;;;27.82;62.76;98586.38;1731267;81;24426;-85
2021/08/14 09:51:51;;;;;;;;;;;;;;;27.80;62.65;98583.88;1719086;82;20235;-85
2021/08/14 09:54:20;;;;;;;;;;;;;;;27.92;62.42;98588.59;1718442;82;25552;-84
2021/08/14 09:56:46;;;;;;;;;;;;;;;27.97;62.28;98584.22;1741466;81;21958;-84
2021/08/14 09:59:12;;;;;;;;;;;;;;;28.04;62.15;98586.89;1736056;81;25937;-84
2021/08/14 10:01:40;;;;;;;;;;;;;;;28.09;62.10;98583.03;1733445;81;24412;-85
2021/08/14 10:04:06;;;;;;;;;;;;;;;28.13;62.01;98584.27;1733422;81;20240;-85
2021/08/14 10:06:32;;;;;;;;;;;;;;;28.20;62.01;98582.38;1733063;81;25125;-84
2021/08/14 10:09:01;;;;;;;;;;;;;;;28.24;61.89;98578.20;1706509;81;22041;-85
2021/08/14 10:11:29;;;;;;;;;;;;;;;28.29;61.82;98583.25;1733630;81;27547;-85
2021/08/14 10:13:56;;;;;;;;;;;;;;;28.34;61.68;98577.20;1743820;81;24443;-85
2021/08/14 10:16:23;;;;;;;;;;;;;;;28.42;61.58;98581.52;1710823;82;20705;-84
2021/08/14 10:18:49;;;;;;;;;;;;;;;28.45;61.47;98567.61;1715432;82;24962;-85
2021/08/14 10:21:15;;;;;;;;;;;;;;;28.51;61.36;98570.26;1714468;82;21921;-85
2021/08/14 10:23:41;;;;;;;;;;;;;;;28.55;61.17;98571.46;1671186;83;26402;-85
2021/08/14 10:26:09;;;;;;;;;;;;;;;28.60;61.00;98578.36;1714193;82;24509;-89
2021/08/14 10:28:49;;;;;;;;;;;;;;;28.63;60.85;98564.99;1711834;82;20433;-87
2021/08/14 10:31:32;;;;;;;;;;;;;;;28.64;60.61;98568.79;1731545;81;25585;-87
2021/08/14 10:34:12;;;;;;;;;;;;;;;28.65;60.47;98565.58;1736225;81;21904;-87
2021/08/14 10:36:39;;;;;;;;;;;;;;;28.66;60.38;98562.67;1733438;81;26813;-88
2021/08/14 10:39:09;;;;;;;;;;;;;;;28.69;60.33;98560.87;1737478;81;24442;-88
2021/08/14 10:41:37;;;;;;;;;;;;;;;28.73;60.25;98561.31;1727144;81;20252;-88
2021/08/14 10:44:03;;;;;;;;;;;;;;;28.74;59.99;98554.06;1735181;81;25865;-88
2021/08/14 10:46:40;;;;;;;;;;;;;;;28.73;59.65;98552.41;1737860;81;22158;-88
2021/08/14 10:49:07;;;;;;;;;;;;;;;28.74;59.40;98545.98;1730691;81;25989;-88
2021/08/14 10:51:51;;;;;;;;;;;;;;;28.76;59.14;98540.66;1755398;81;24403;-88
2021/08/14 10:54:33;;;;;;;;;;;;;;;28.80;58.98;98537.02;1729536;81;20287;-84
2021/08/14 10:57:03;;;;;;;;;;;;;;;28.87;58.87;98538.59;1741017;80;25144;-84
2021/08/14 10:59:40;;;;;;;;;;;;;;;28.96;58.81;98536.45;1740618;80;22061;-84
2021/08/14 11:02:11;;;;;;;;;;;;;;;29.00;58.70;98536.30;1725340;82;25902;-85
2021/08/14 11:04:41;;;;;;;;;;;;;;;29.03;58.49;98537.19;1743206;80;24510;-85
2021/08/14 11:07:21;;;;;;;;;;;;;;;28.99;58.19;98537.34;1744037;80;20219;-85
2021/08/14 11:09:55;;;;;;;;;;;;;;;28.89;57.93;98532.98;1710541;82;25340;-85
2021/08/14 11:12:32;;;;;;;;;;;;;;;28.88;57.79;98533.50;1742584;81;22003;-86
2021/08/14 11:15:15;;;;;;;;;;;;;;;28.92;57.70;98525.27;1745463;80;25973;-85
2021/08/14 11:17:41;;;;;;;;;;;;;;;28.93;57.53;98522.05;1744127;82;24409;-85
2021/08/14 11:20:09;;;;;;;;;;;;;;;29.01;57.44;98529.34;1744402;80;20576;-86
2021/08/14 11:22:42;;;;;;;;;;;;;;;29.11;57.44;98524.27;1724995;82;25037;-85
2021/08/14 11:25:27;;;;;;;;;;;;;;;29.20;57.46;98522.08;1706547;82;21972;-85
2021/08/14 11:27:55;;;;;;;;;;;;;;;29.31;57.28;98517.30;1741127;82;25990;-85
2021/08/14 11:30:24;;;;;;;;;;;;;;;29.39;56.99;98515.69;1743763;80;24515;-86
2021/08/14 11:32:50;;;;;;;;;;;;;;;29.50;57.01;98504.15;1740502;81;20439;-84
2021/08/14 11:35:18;;;;;;;;;;;;;;;29.59;56.84;98503.82;1738360;80;25061;-85
2021/08/14 11:37:49;;;;;;;;;;;;;;;29.60;56.65;98506.82;1741289;80;22765;-85
2021/08/14 11:40:15;;;;;;;;;;;;;;;29.57;56.51;98499.20;1742176;80;26694;-84
2021/08/14 11:42:44;;;;;;;;;;;;;;;29.42;56.08;98509.83;1741031;81;25333;-84
2021/08/14 11:45:11;;;;;;;;;;;;;;;29.38;55.87;98504.59;1740088;80;20218;-85
2021/08/14 11:47:38;;;;;;;;;;;;;;;29.48;55.90;98504.89;1744340;80;25048;-86
2021/08/14 11:50:10;;;;;;;;;;;;;;;29.64;55.94;98505.31;1742384;81;22155;-86
2021/08/14 11:52:36;;;;;;;;;;;;;;;29.72;55.75;98500.96;1740314;81;26218;-89
2021/08/14 11:55:07;;;;;;;;;;;;;;;29.69;55.50;98498.18;1739602;81;24478;-89
2021/08/14 11:57:35;;;;;;;;;;;;;;;29.64;55.35;98495.87;1739032;81;20778;-85
2021/08/14 12:00:03;;;;;;;;;;;;;;;29.61;55.26;98498.52;1733728;81;25153;-85
2021/08/14 12:02:29;;;;;;;;;;;;;;;29.69;55.30;98498.70;1736881;81;22802;-86
2021/08/14 12:04:55;;;;;;;;;;;;;;;29.73;55.24;98498.02;1737253;81;21050;-89
2021/08/14 12:07:24;;;;;;;;;;;;;;;29.81;55.13;98491.48;1735441;81;24504;-89
2021/08/14 12:09:50;;;;;;;;;;;;;;;29.88;55.13;98488.18;1742337;81;20256;-89
2021/08/14 12:12:18;;;;;;;;;;;;;;;29.86;54.94;98486.23;1736740;81;24886;-89
2021/08/14 12:14:47;;;;;;;;;;;;;;;29.91;54.96;98471.55;1741095;81;21997;-89
2021/08/14 12:17:19;;;;;;;;;;;;;;;30.07;55.00;98474.11;1738771;81;26897;-89
2021/08/14 12:19:52;;;;;;;;;;;;;;;30.28;55.14;98487.07;1736293;81;25343;-89
2021/08/14 12:22:29;;;;;;;;;;;;;;;30.46;55.02;98490.22;1737890;81;20300;-90
2021/08/14 12:24:56;;;;;;;;;;;;;;;30.63;54.91;98492.03;1737352;81;24962;-89
2021/08/14 12:27:22;;;;;;;;;;;;;;;30.78;54.63;98495.61;1740131;81;22000;-89
2021/08/14 12:29:53;;;;;;;;;;;;;;;30.71;54.19;98486.27;1739906;81;26100;-90
2021/08/14 12:32:22;;;;;;;;;;;;;;;30.68;53.92;98503.48;1741160;81;25189;-90
2021/08/14 12:34:51;;;;;;;;;;;;;;;30.55;53.69;98497.77;1739462;81;20305;-89
2021/08/14 12:37:20;;;;;;;;;;;;;;;30.43;53.53;98493.39;1711664;82;24942;-91
2021/08/14 12:39:51;;;;;;;;;;;;;;;30.37;53.46;98492.97;1716324;82;22213;-89
2021/08/14 12:42:23;;;;;;;;;;;;;;;30.28;53.38;98491.12;1716156;82;25548;-86
2021/08/14 12:44:49;;;;;;;;;;;;;;;30.19;53.19;98487.12;1743508;81;24520;-86
2021/08/14 12:47:25;;;;;;;;;;;;;;;30.11;52.93;98483.42;1738296;81;20693;-85
2021/08/14 12:50:09;;;;;;;;;;;;;;;30.14;52.81;98477.55;1722109;82;25023;-86